sensor_id;sensor_type;location;lat;lon;timestamp;P1;durP1;ratioP1;P2;durP2;ratioP2
78752;SDS011;68072;51.688;7.842;2023-06-01T00:02:17;8.52;;;3.92;;
78752;SDS011;68072;51.688;7.842;2023-06-01T00:04:51;7.95;;;3.97;;
78752;SDS011;68072;51.688;7.842;2023-06-01T00:07:17;6.45;;;4.00;;
78752;SDS011;68072;51.688;7.842;2023-06-01T00:09:42;9.45;;;4.30;;
78752;SDS011;68072;51.688;7.842;2023-06-01T00:12:08;8.07;;;4.40;;
78752;SDS011;68072;51.688;7.842;2023-06-01T00:14:34;8.05;;;4.18;;
78752;SDS011;68072;51.688;7.842;2023-06-01T00:17:00;7.82;;;4.32;;
78752;SDS011;68072;51.688;7.842;2023-06-01T00:19:26;6.82;;;3.83;;
78752;SDS011;68072;51.688;7.842;2023-06-01T00:21:55;7.13;;;4.53;;
78752;SDS011;68072;51.688;7.842;2023-06-01T00:24:22;11.90;;;4.22;;
78752;SDS011;68072;51.688;7.842;2023-06-01T00:26:48;7.85;;;4.20;;
78752;SDS011;68072;51.688;7.842;2023-06-01T00:29:16;9.43;;;3.90;;
78752;SDS011;68072;51.688;7.842;2023-06-01T00:31:42;6.35;;;4.45;;
78752;SDS011;68072;51.688;7.842;2023-06-01T00:34:07;11.00;;;4.60;;
78752;SDS011;68072;51.688;7.842;2023-06-01T00:36:33;8.55;;;4.80;;
78752;SDS011;68072;51.688;7.842;2023-06-01T00:38:59;11.80;;;5.47;;
78752;SDS011;68072;51.688;7.842;2023-06-01T00:41:31;8.65;;;5.07;;
78752;SDS011;68072;51.688;7.842;2023-06-01T00:43:58;11.18;;;5.97;;
78752;SDS011;68072;51.688;7.842;2023-06-01T00:46:24;12.50;;;6.18;;
78752;SDS011;68072;51.688;7.842;2023-06-01T00:48:49;12.50;;;5.85;;
78752;SDS011;68072;51.688;7.842;2023-06-01T00:51:15;13.85;;;6.55;;
78752;SDS011;68072;51.688;7.842;2023-06-01T00:53:41;17.15;;;6.40;;
78752;SDS011;68072;51.688;7.842;2023-06-01T00:56:07;11.95;;;6.32;;
78752;SDS011;68072;51.688;7.842;2023-06-01T00:58:33;10.52;;;6.03;;
78752;SDS011;68072;51.688;7.842;2023-06-01T01:00:59;15.73;;;7.03;;
78752;SDS011;68072;51.688;7.842;2023-06-01T01:03:26;18.25;;;6.60;;
78752;SDS011;68072;51.688;7.842;2023-06-01T01:06:00;13.90;;;7.07;;
78752;SDS011;68072;51.688;7.842;2023-06-01T01:19:28;13.90;;;7.22;;
78752;SDS011;68072;51.688;7.842;2023-06-01T01:22:46;16.92;;;7.60;;
78752;SDS011;68072;51.688;7.842;2023-06-01T01:25:20;18.10;;;7.65;;
78752;SDS011;68072;51.688;7.842;2023-06-01T01:30:26;17.67;;;8.32;;
78752;SDS011;68072;51.688;7.842;2023-06-01T01:32:53;14.90;;;7.75;;
78752;SDS011;68072;51.688;7.842;2023-06-01T01:35:19;15.32;;;7.30;;
78752;SDS011;68072;51.688;7.842;2023-06-01T01:37:52;19.90;;;8.68;;
78752;SDS011;68072;51.688;7.842;2023-06-01T01:40:18;17.08;;;7.50;;
78752;SDS011;68072;51.688;7.842;2023-06-01T01:42:43;19.75;;;8.77;;
78752;SDS011;68072;51.688;7.842;2023-06-01T01:45:09;14.02;;;7.82;;
78752;SDS011;68072;51.688;7.842;2023-06-01T01:47:36;17.63;;;8.68;;
78752;SDS011;68072;51.688;7.842;2023-06-01T01:50:06;16.95;;;7.85;;
78752;SDS011;68072;51.688;7.842;2023-06-01T01:52:36;17.00;;;8.70;;
78752;SDS011;68072;51.688;7.842;2023-06-01T01:55:03;20.33;;;9.13;;
78752;SDS011;68072;51.688;7.842;2023-06-01T01:57:32;20.98;;;8.60;;
78752;SDS011;68072;51.688;7.842;2023-06-01T02:00:00;19.90;;;8.82;;
78752;SDS011;68072;51.688;7.842;2023-06-01T02:02:27;16.35;;;8.57;;
78752;SDS011;68072;51.688;7.842;2023-06-01T02:04:52;18.08;;;7.93;;
78752;SDS011;68072;51.688;7.842;2023-06-01T02:07:18;17.75;;;8.52;;
78752;SDS011;68072;51.688;7.842;2023-06-01T02:09:43;19.83;;;8.80;;
78752;SDS011;68072;51.688;7.842;2023-06-01T02:12:09;24.42;;;9.45;;
78752;SDS011;68072;51.688;7.842;2023-06-01T02:14:34;16.48;;;8.88;;
78752;SDS011;68072;51.688;7.842;2023-06-01T02:17:00;20.45;;;9.23;;
78752;SDS011;68072;51.688;7.842;2023-06-01T02:19:26;18.13;;;9.85;;
78752;SDS011;68072;51.688;7.842;2023-06-01T02:21:51;18.95;;;10.05;;
78752;SDS011;68072;51.688;7.842;2023-06-01T02:24:17;18.30;;;9.40;;
78752;SDS011;68072;51.688;7.842;2023-06-01T02:26:42;21.70;;;9.73;;
78752;SDS011;68072;51.688;7.842;2023-06-01T02:29:08;19.55;;;9.68;;
78752;SDS011;68072;51.688;7.842;2023-06-01T02:31:34;23.80;;;11.57;;
78752;SDS011;68072;51.688;7.842;2023-06-01T02:34:00;25.17;;;12.48;;
78752;SDS011;68072;51.688;7.842;2023-06-01T02:36:28;26.63;;;11.18;;
78752;SDS011;68072;51.688;7.842;2023-06-01T02:38:57;23.48;;;11.05;;
78752;SDS011;68072;51.688;7.842;2023-06-01T02:41:23;25.95;;;12.30;;
78752;SDS011;68072;51.688;7.842;2023-06-01T02:46:18;23.70;;;10.93;;
78752;SDS011;68072;51.688;7.842;2023-06-01T02:48:44;27.67;;;12.93;;
78752;SDS011;68072;51.688;7.842;2023-06-01T02:51:10;25.35;;;11.07;;
78752;SDS011;68072;51.688;7.842;2023-06-01T02:53:35;27.75;;;11.63;;
78752;SDS011;68072;51.688;7.842;2023-06-01T02:56:01;29.17;;;13.18;;
78752;SDS011;68072;51.688;7.842;2023-06-01T02:58:26;25.15;;;12.07;;
78752;SDS011;68072;51.688;7.842;2023-06-01T03:00:54;21.92;;;12.02;;
78752;SDS011;68072;51.688;7.842;2023-06-01T03:03:20;28.38;;;12.23;;
78752;SDS011;68072;51.688;7.842;2023-06-01T03:05:46;23.42;;;11.45;;
78752;SDS011;68072;51.688;7.842;2023-06-01T03:08:14;29.30;;;13.40;;
78752;SDS011;68072;51.688;7.842;2023-06-01T03:10:41;30.27;;;14.85;;
78752;SDS011;68072;51.688;7.842;2023-06-01T03:13:07;28.27;;;13.77;;
78752;SDS011;68072;51.688;7.842;2023-06-01T03:15:33;26.85;;;12.75;;
78752;SDS011;68072;51.688;7.842;2023-06-01T03:17:58;28.17;;;14.18;;
78752;SDS011;68072;51.688;7.842;2023-06-01T03:20:23;30.85;;;13.57;;
78752;SDS011;68072;51.688;7.842;2023-06-01T03:22:49;30.38;;;14.02;;
78752;SDS011;68072;51.688;7.842;2023-06-01T03:25:15;28.33;;;12.30;;
78752;SDS011;68072;51.688;7.842;2023-06-01T03:27:41;24.80;;;12.30;;
78752;SDS011;68072;51.688;7.842;2023-06-01T03:30:07;22.95;;;11.65;;
78752;SDS011;68072;51.688;7.842;2023-06-01T03:32:40;31.52;;;12.15;;
78752;SDS011;68072;51.688;7.842;2023-06-01T03:35:09;23.20;;;12.02;;
78752;SDS011;68072;51.688;7.842;2023-06-01T03:37:35;24.35;;;11.88;;
78752;SDS011;68072;51.688;7.842;2023-06-01T03:40:02;27.38;;;13.70;;
78752;SDS011;68072;51.688;7.842;2023-06-01T03:42:41;24.55;;;12.65;;
78752;SDS011;68072;51.688;7.842;2023-06-01T03:45:08;30.90;;;13.75;;
78752;SDS011;68072;51.688;7.842;2023-06-01T03:50:00;27.88;;;13.00;;
78752;SDS011;68072;51.688;7.842;2023-06-01T03:52:27;22.75;;;10.88;;
78752;SDS011;68072;51.688;7.842;2023-06-01T03:54:54;25.85;;;12.35;;
78752;SDS011;68072;51.688;7.842;2023-06-01T03:57:20;30.02;;;12.70;;
78752;SDS011;68072;51.688;7.842;2023-06-01T03:59:46;29.20;;;13.25;;
78752;SDS011;68072;51.688;7.842;2023-06-01T04:02:11;24.58;;;12.32;;
78752;SDS011;68072;51.688;7.842;2023-06-01T04:04:38;26.52;;;13.15;;
78752;SDS011;68072;51.688;7.842;2023-06-01T04:07:05;23.50;;;12.52;;
78752;SDS011;68072;51.688;7.842;2023-06-01T04:11:57;22.87;;;10.30;;
78752;SDS011;68072;51.688;7.842;2023-06-01T04:14:22;19.50;;;10.60;;
78752;SDS011;68072;51.688;7.842;2023-06-01T04:16:48;19.92;;;10.13;;
78752;SDS011;68072;51.688;7.842;2023-06-01T04:19:13;21.77;;;11.98;;
78752;SDS011;68072;51.688;7.842;2023-06-01T04:21:39;20.92;;;10.25;;
78752;SDS011;68072;51.688;7.842;2023-06-01T04:24:05;21.25;;;10.40;;
78752;SDS011;68072;51.688;7.842;2023-06-01T04:26:30;17.70;;;9.45;;
78752;SDS011;68072;51.688;7.842;2023-06-01T04:29:01;21.65;;;10.40;;
78752;SDS011;68072;51.688;7.842;2023-06-01T04:31:28;20.38;;;11.50;;
78752;SDS011;68072;51.688;7.842;2023-06-01T04:33:53;19.63;;;10.25;;
78752;SDS011;68072;51.688;7.842;2023-06-01T04:36:21;23.73;;;10.57;;
78752;SDS011;68072;51.688;7.842;2023-06-01T04:38:48;21.35;;;11.13;;
78752;SDS011;68072;51.688;7.842;2023-06-01T04:41:18;22.75;;;11.00;;
78752;SDS011;68072;51.688;7.842;2023-06-01T04:43:47;18.63;;;9.88;;
78752;SDS011;68072;51.688;7.842;2023-06-01T04:46:22;20.73;;;10.98;;
78752;SDS011;68072;51.688;7.842;2023-06-01T04:48:51;23.90;;;10.82;;
78752;SDS011;68072;51.688;7.842;2023-06-01T04:51:23;17.88;;;10.20;;
78752;SDS011;68072;51.688;7.842;2023-06-01T04:53:50;23.50;;;11.05;;
78752;SDS011;68072;51.688;7.842;2023-06-01T04:56:23;22.05;;;10.23;;
78752;SDS011;68072;51.688;7.842;2023-06-01T04:58:52;19.85;;;10.27;;
78752;SDS011;68072;51.688;7.842;2023-06-01T05:01:18;21.38;;;11.02;;
78752;SDS011;68072;51.688;7.842;2023-06-01T05:03:44;22.80;;;11.77;;
78752;SDS011;68072;51.688;7.842;2023-06-01T05:06:10;17.35;;;9.98;;
78752;SDS011;68072;51.688;7.842;2023-06-01T05:08:40;21.10;;;11.40;;
78752;SDS011;68072;51.688;7.842;2023-06-01T05:11:07;21.67;;;11.80;;
78752;SDS011;68072;51.688;7.842;2023-06-01T05:13:37;20.40;;;10.82;;
78752;SDS011;68072;51.688;7.842;2023-06-01T05:16:03;20.00;;;11.63;;
78752;SDS011;68072;51.688;7.842;2023-06-01T05:18:29;20.38;;;10.80;;
78752;SDS011;68072;51.688;7.842;2023-06-01T05:20:55;24.17;;;10.95;;
78752;SDS011;68072;51.688;7.842;2023-06-01T05:23:21;23.42;;;11.55;;
78752;SDS011;68072;51.688;7.842;2023-06-01T05:25:46;21.58;;;10.77;;
78752;SDS011;68072;51.688;7.842;2023-06-01T05:28:12;18.75;;;10.63;;
78752;SDS011;68072;51.688;7.842;2023-06-01T05:30:37;15.73;;;9.98;;
78752;SDS011;68072;51.688;7.842;2023-06-01T05:33:03;22.13;;;11.57;;
78752;SDS011;68072;51.688;7.842;2023-06-01T05:35:28;18.67;;;11.05;;
78752;SDS011;68072;51.688;7.842;2023-06-01T05:37:55;23.33;;;11.05;;
78752;SDS011;68072;51.688;7.842;2023-06-01T05:40:20;20.50;;;11.50;;
78752;SDS011;68072;51.688;7.842;2023-06-01T05:42:47;21.88;;;10.43;;
78752;SDS011;68072;51.688;7.842;2023-06-01T05:45:13;21.83;;;11.88;;
78752;SDS011;68072;51.688;7.842;2023-06-01T05:47:39;21.33;;;10.77;;
78752;SDS011;68072;51.688;7.842;2023-06-01T05:50:05;19.55;;;10.15;;
78752;SDS011;68072;51.688;7.842;2023-06-01T05:52:31;18.77;;;11.32;;
78752;SDS011;68072;51.688;7.842;2023-06-01T05:54:56;17.98;;;9.88;;
78752;SDS011;68072;51.688;7.842;2023-06-01T05:57:22;14.40;;;9.18;;
78752;SDS011;68072;51.688;7.842;2023-06-01T05:59:50;19.63;;;10.57;;
78752;SDS011;68072;51.688;7.842;2023-06-01T06:02:18;16.92;;;8.85;;
78752;SDS011;68072;51.688;7.842;2023-06-01T06:04:43;16.83;;;9.43;;
78752;SDS011;68072;51.688;7.842;2023-06-01T06:07:09;16.83;;;9.77;;
78752;SDS011;68072;51.688;7.842;2023-06-01T06:09:34;26.08;;;8.98;;
78752;SDS011;68072;51.688;7.842;2023-06-01T06:12:00;17.23;;;8.25;;
78752;SDS011;68072;51.688;7.842;2023-06-01T06:14:26;16.58;;;8.90;;
78752;SDS011;68072;51.688;7.842;2023-06-01T06:16:52;17.85;;;9.25;;
78752;SDS011;68072;51.688;7.842;2023-06-01T06:19:17;18.88;;;9.98;;
78752;SDS011;68072;51.688;7.842;2023-06-01T06:21:43;22.67;;;9.13;;
78752;SDS011;68072;51.688;7.842;2023-06-01T06:24:08;18.48;;;10.18;;
78752;SDS011;68072;51.688;7.842;2023-06-01T06:26:34;20.20;;;10.30;;
78752;SDS011;68072;51.688;7.842;2023-06-01T06:29:00;20.83;;;11.00;;
78752;SDS011;68072;51.688;7.842;2023-06-01T06:31:26;20.33;;;10.15;;
78752;SDS011;68072;51.688;7.842;2023-06-01T06:33:51;20.00;;;10.55;;
78752;SDS011;68072;51.688;7.842;2023-06-01T06:36:17;17.55;;;9.25;;
78752;SDS011;68072;51.688;7.842;2023-06-01T06:38:43;16.63;;;8.55;;
78752;SDS011;68072;51.688;7.842;2023-06-01T06:41:08;18.65;;;8.73;;
78752;SDS011;68072;51.688;7.842;2023-06-01T06:43:34;16.23;;;8.27;;
78752;SDS011;68072;51.688;7.842;2023-06-01T06:46:00;18.77;;;7.88;;
78752;SDS011;68072;51.688;7.842;2023-06-01T06:48:25;18.00;;;8.65;;
78752;SDS011;68072;51.688;7.842;2023-06-01T06:50:50;16.17;;;8.93;;
78752;SDS011;68072;51.688;7.842;2023-06-01T06:53:16;15.70;;;8.63;;
78752;SDS011;68072;51.688;7.842;2023-06-01T06:55:43;17.13;;;9.43;;
78752;SDS011;68072;51.688;7.842;2023-06-01T06:58:09;18.67;;;9.23;;
78752;SDS011;68072;51.688;7.842;2023-06-01T07:00:36;18.67;;;9.13;;
78752;SDS011;68072;51.688;7.842;2023-06-01T07:03:01;18.15;;;8.85;;
78752;SDS011;68072;51.688;7.842;2023-06-01T07:05:28;15.30;;;8.77;;
78752;SDS011;68072;51.688;7.842;2023-06-01T07:07:53;18.27;;;7.75;;
78752;SDS011;68072;51.688;7.842;2023-06-01T07:10:19;13.98;;;7.47;;
78752;SDS011;68072;51.688;7.842;2023-06-01T07:12:44;18.70;;;8.13;;
78752;SDS011;68072;51.688;7.842;2023-06-01T07:15:10;14.18;;;7.75;;
78752;SDS011;68072;51.688;7.842;2023-06-01T07:17:35;19.45;;;7.38;;
78752;SDS011;68072;51.688;7.842;2023-06-01T07:20:02;16.90;;;6.88;;
78752;SDS011;68072;51.688;7.842;2023-06-01T07:22:33;10.55;;;6.05;;
78752;SDS011;68072;51.688;7.842;2023-06-01T07:24:59;14.45;;;7.40;;
78752;SDS011;68072;51.688;7.842;2023-06-01T07:27:25;12.15;;;7.35;;
78752;SDS011;68072;51.688;7.842;2023-06-01T07:29:51;15.05;;;7.15;;
78752;SDS011;68072;51.688;7.842;2023-06-01T07:32:20;14.18;;;6.70;;
78752;SDS011;68072;51.688;7.842;2023-06-01T07:37:11;13.75;;;7.03;;
78752;SDS011;68072;51.688;7.842;2023-06-01T07:39:37;16.77;;;6.97;;
78752;SDS011;68072;51.688;7.842;2023-06-01T07:42:02;13.48;;;6.40;;
78752;SDS011;68072;51.688;7.842;2023-06-01T07:44:28;13.15;;;7.32;;
78752;SDS011;68072;51.688;7.842;2023-06-01T07:46:53;13.75;;;6.57;;
78752;SDS011;68072;51.688;7.842;2023-06-01T07:49:19;15.20;;;7.85;;
78752;SDS011;68072;51.688;7.842;2023-06-01T07:51:45;13.73;;;7.10;;
78752;SDS011;68072;51.688;7.842;2023-06-01T07:54:10;13.73;;;7.63;;
78752;SDS011;68072;51.688;7.842;2023-06-01T07:56:36;15.80;;;7.40;;
78752;SDS011;68072;51.688;7.842;2023-06-01T07:59:02;12.43;;;6.30;;
78752;SDS011;68072;51.688;7.842;2023-06-01T08:01:27;14.65;;;7.65;;
78752;SDS011;68072;51.688;7.842;2023-06-01T08:03:53;11.63;;;6.78;;
78752;SDS011;68072;51.688;7.842;2023-06-01T08:06:20;16.48;;;6.88;;
78752;SDS011;68072;51.688;7.842;2023-06-01T08:08:47;15.10;;;7.13;;
78752;SDS011;68072;51.688;7.842;2023-06-01T08:11:14;11.32;;;6.40;;
78752;SDS011;68072;51.688;7.842;2023-06-01T08:13:40;14.15;;;6.60;;
78752;SDS011;68072;51.688;7.842;2023-06-01T08:16:06;15.88;;;7.18;;
78752;SDS011;68072;51.688;7.842;2023-06-01T08:18:31;14.52;;;6.55;;
78752;SDS011;68072;51.688;7.842;2023-06-01T08:20:57;11.32;;;6.50;;
78752;SDS011;68072;51.688;7.842;2023-06-01T08:23:25;12.90;;;6.75;;
78752;SDS011;68072;51.688;7.842;2023-06-01T08:25:51;18.33;;;6.80;;
78752;SDS011;68072;51.688;7.842;2023-06-01T08:28:16;13.90;;;6.78;;
78752;SDS011;68072;51.688;7.842;2023-06-01T08:30:42;13.18;;;6.72;;
78752;SDS011;68072;51.688;7.842;2023-06-01T08:33:07;13.65;;;6.68;;
78752;SDS011;68072;51.688;7.842;2023-06-01T08:35:32;11.65;;;6.03;;
78752;SDS011;68072;51.688;7.842;2023-06-01T08:38:02;11.82;;;6.60;;
78752;SDS011;68072;51.688;7.842;2023-06-01T08:40:30;13.57;;;5.93;;
78752;SDS011;68072;51.688;7.842;2023-06-01T08:42:59;14.80;;;6.40;;
78752;SDS011;68072;51.688;7.842;2023-06-01T08:45:39;8.32;;;5.90;;
78752;SDS011;68072;51.688;7.842;2023-06-01T08:48:05;10.90;;;6.20;;
78752;SDS011;68072;51.688;7.842;2023-06-01T08:50:33;13.13;;;6.30;;
78752;SDS011;68072;51.688;7.842;2023-06-01T08:52:59;12.70;;;7.03;;
78752;SDS011;68072;51.688;7.842;2023-06-01T08:55:25;12.48;;;6.70;;
78752;SDS011;68072;51.688;7.842;2023-06-01T08:57:50;11.55;;;6.55;;
78752;SDS011;68072;51.688;7.842;2023-06-01T09:00:16;11.50;;;6.30;;
78752;SDS011;68072;51.688;7.842;2023-06-01T09:05:08;10.80;;;5.90;;
78752;SDS011;68072;51.688;7.842;2023-06-01T09:07:34;11.82;;;5.88;;
78752;SDS011;68072;51.688;7.842;2023-06-01T09:09:59;13.65;;;6.70;;
78752;SDS011;68072;51.688;7.842;2023-06-01T09:12:28;15.20;;;6.38;;
78752;SDS011;68072;51.688;7.842;2023-06-01T09:17:29;13.05;;;6.63;;
78752;SDS011;68072;51.688;7.842;2023-06-01T09:19:54;17.27;;;6.95;;
78752;SDS011;68072;51.688;7.842;2023-06-01T09:24:55;10.87;;;5.90;;
78752;SDS011;68072;51.688;7.842;2023-06-01T09:27:22;13.40;;;6.75;;
78752;SDS011;68072;51.688;7.842;2023-06-01T09:29:57;12.10;;;6.80;;
78752;SDS011;68072;51.688;7.842;2023-06-01T09:32:25;17.25;;;6.50;;
78752;SDS011;68072;51.688;7.842;2023-06-01T09:34:50;12.38;;;6.57;;
78752;SDS011;68072;51.688;7.842;2023-06-01T09:37:16;12.95;;;7.10;;
78752;SDS011;68072;51.688;7.842;2023-06-01T09:39:42;18.55;;;7.20;;
78752;SDS011;68072;51.688;7.842;2023-06-01T09:42:08;11.48;;;5.90;;
78752;SDS011;68072;51.688;7.842;2023-06-01T09:44:38;14.20;;;6.28;;
78752;SDS011;68072;51.688;7.842;2023-06-01T09:47:05;13.93;;;6.63;;
78752;SDS011;68072;51.688;7.842;2023-06-01T09:49:36;11.07;;;6.20;;
78752;SDS011;68072;51.688;7.842;2023-06-01T09:54:32;18.93;;;6.90;;
78752;SDS011;68072;51.688;7.842;2023-06-01T09:56:59;8.77;;;6.15;;
78752;SDS011;68072;51.688;7.842;2023-06-01T09:59:25;12.40;;;7.03;;
78752;SDS011;68072;51.688;7.842;2023-06-01T10:01:53;13.25;;;6.53;;
78752;SDS011;68072;51.688;7.842;2023-06-01T10:04:21;13.02;;;6.05;;
78752;SDS011;68072;51.688;7.842;2023-06-01T10:06:48;14.65;;;7.10;;
78752;SDS011;68072;51.688;7.842;2023-06-01T10:09:18;16.02;;;6.38;;
78752;SDS011;68072;51.688;7.842;2023-06-01T10:11:49;16.60;;;6.88;;
78752;SDS011;68072;51.688;7.842;2023-06-01T10:14:18;14.43;;;6.93;;
78752;SDS011;68072;51.688;7.842;2023-06-01T10:16:48;15.65;;;6.70;;
78752;SDS011;68072;51.688;7.842;2023-06-01T10:19:15;10.68;;;6.35;;
78752;SDS011;68072;51.688;7.842;2023-06-01T10:21:40;14.25;;;7.18;;
78752;SDS011;68072;51.688;7.842;2023-06-01T10:24:07;12.77;;;6.65;;
78752;SDS011;68072;51.688;7.842;2023-06-01T10:26:36;12.20;;;7.10;;
78752;SDS011;68072;51.688;7.842;2023-06-01T10:29:03;16.70;;;6.18;;
78752;SDS011;68072;51.688;7.842;2023-06-01T10:34:02;16.15;;;7.43;;
78752;SDS011;68072;51.688;7.842;2023-06-01T10:41:50;11.45;;;6.28;;
78752;SDS011;68072;51.688;7.842;2023-06-01T10:44:49;11.82;;;7.00;;
78752;SDS011;68072;51.688;7.842;2023-06-01T10:52:49;11.90;;;6.15;;
78752;SDS011;68072;51.688;7.842;2023-06-01T10:57:39;14.98;;;6.40;;
78752;SDS011;68072;51.688;7.842;2023-06-01T11:00:24;14.18;;;6.50;;
78752;SDS011;68072;51.688;7.842;2023-06-01T11:05:41;10.05;;;6.60;;
78752;SDS011;68072;51.688;7.842;2023-06-01T11:23:55;12.23;;;7.25;;
78752;SDS011;68072;51.688;7.842;2023-06-01T11:26:22;18.42;;;7.85;;
78752;SDS011;68072;51.688;7.842;2023-06-01T11:28:50;17.70;;;7.00;;
78752;SDS011;68072;51.688;7.842;2023-06-01T11:31:17;17.25;;;7.75;;
78752;SDS011;68072;51.688;7.842;2023-06-01T11:33:54;23.60;;;9.60;;
78752;SDS011;68072;51.688;7.842;2023-06-01T11:36:22;17.38;;;8.35;;
78752;SDS011;68072;51.688;7.842;2023-06-01T11:38:51;18.73;;;7.95;;
78752;SDS011;68072;51.688;7.842;2023-06-01T11:41:19;16.38;;;7.63;;
78752;SDS011;68072;51.688;7.842;2023-06-01T11:43:52;17.48;;;7.38;;
78752;SDS011;68072;51.688;7.842;2023-06-01T11:46:18;20.52;;;8.00;;
78752;SDS011;68072;51.688;7.842;2023-06-01T11:48:44;13.05;;;6.93;;
78752;SDS011;68072;51.688;7.842;2023-06-01T11:51:26;12.75;;;6.72;;
78752;SDS011;68072;51.688;7.842;2023-06-01T11:53:52;13.63;;;7.00;;
78752;SDS011;68072;51.688;7.842;2023-06-01T11:56:19;11.77;;;6.68;;
78752;SDS011;68072;51.688;7.842;2023-06-01T12:01:11;14.87;;;6.83;;
78752;SDS011;68072;51.688;7.842;2023-06-01T12:03:44;13.02;;;7.07;;
78752;SDS011;68072;51.688;7.842;2023-06-01T12:06:18;14.65;;;7.55;;
78752;SDS011;68072;51.688;7.842;2023-06-01T12:08:48;14.20;;;7.05;;
78752;SDS011;68072;51.688;7.842;2023-06-01T12:11:17;13.77;;;7.15;;
78752;SDS011;68072;51.688;7.842;2023-06-01T12:13:44;13.88;;;7.03;;
78752;SDS011;68072;51.688;7.842;2023-06-01T12:16:12;14.60;;;6.65;;
78752;SDS011;68072;51.688;7.842;2023-06-01T12:18:37;13.02;;;6.63;;
78752;SDS011;68072;51.688;7.842;2023-06-01T12:21:09;13.20;;;6.90;;
78752;SDS011;68072;51.688;7.842;2023-06-01T12:23:35;10.07;;;6.22;;
78752;SDS011;68072;51.688;7.842;2023-06-01T12:26:01;12.68;;;7.15;;
78752;SDS011;68072;51.688;7.842;2023-06-01T12:28:27;12.20;;;6.70;;
78752;SDS011;68072;51.688;7.842;2023-06-01T12:33:51;12.20;;;6.85;;
78752;SDS011;68072;51.688;7.842;2023-06-01T12:36:29;16.00;;;6.70;;
78752;SDS011;68072;51.688;7.842;2023-06-01T12:38:56;10.80;;;5.72;;
78752;SDS011;68072;51.688;7.842;2023-06-01T12:41:23;13.95;;;6.78;;
78752;SDS011;68072;51.688;7.842;2023-06-01T12:43:49;13.07;;;6.30;;
78752;SDS011;68072;51.688;7.842;2023-06-01T12:46:19;13.70;;;5.95;;
78752;SDS011;68072;51.688;7.842;2023-06-01T12:48:44;8.32;;;5.63;;
78752;SDS011;68072;51.688;7.842;2023-06-01T12:51:10;9.35;;;6.07;;
78752;SDS011;68072;51.688;7.842;2023-06-01T12:53:36;10.32;;;5.65;;
78752;SDS011;68072;51.688;7.842;2023-06-01T12:56:01;9.40;;;5.68;;
78752;SDS011;68072;51.688;7.842;2023-06-01T12:58:27;9.70;;;6.28;;
78752;SDS011;68072;51.688;7.842;2023-06-01T13:00:56;10.25;;;5.65;;
78752;SDS011;68072;51.688;7.842;2023-06-01T13:03:22;10.50;;;5.72;;
78752;SDS011;68072;51.688;7.842;2023-06-01T13:05:47;8.45;;;6.28;;
78752;SDS011;68072;51.688;7.842;2023-06-01T13:08:14;8.63;;;5.93;;
78752;SDS011;68072;51.688;7.842;2023-06-01T13:10:41;13.88;;;6.20;;
78752;SDS011;68072;51.688;7.842;2023-06-01T13:13:07;9.05;;;5.95;;
78752;SDS011;68072;51.688;7.842;2023-06-01T13:17:58;10.18;;;5.65;;
78752;SDS011;68072;51.688;7.842;2023-06-01T13:20:23;10.73;;;5.43;;
78752;SDS011;68072;51.688;7.842;2023-06-01T13:22:49;13.48;;;6.35;;
78752;SDS011;68072;51.688;7.842;2023-06-01T13:25:14;10.45;;;6.43;;
78752;SDS011;68072;51.688;7.842;2023-06-01T13:27:40;9.93;;;5.82;;
78752;SDS011;68072;51.688;7.842;2023-06-01T13:30:05;11.43;;;5.93;;
78752;SDS011;68072;51.688;7.842;2023-06-01T13:32:32;9.98;;;5.78;;
78752;SDS011;68072;51.688;7.842;2023-06-01T13:34:58;11.52;;;6.22;;
78752;SDS011;68072;51.688;7.842;2023-06-01T13:37:23;10.10;;;6.15;;
78752;SDS011;68072;51.688;7.842;2023-06-01T13:39:49;7.38;;;5.43;;
78752;SDS011;68072;51.688;7.842;2023-06-01T13:42:15;9.60;;;6.22;;
78752;SDS011;68072;51.688;7.842;2023-06-01T13:44:41;8.05;;;5.68;;
78752;SDS011;68072;51.688;7.842;2023-06-01T13:47:10;7.78;;;6.03;;
78752;SDS011;68072;51.688;7.842;2023-06-01T13:49:36;10.48;;;5.85;;
78752;SDS011;68072;51.688;7.842;2023-06-01T13:52:01;7.80;;;6.18;;
78752;SDS011;68072;51.688;7.842;2023-06-01T13:54:27;9.57;;;6.38;;
78752;SDS011;68072;51.688;7.842;2023-06-01T13:56:52;8.77;;;5.93;;
78752;SDS011;68072;51.688;7.842;2023-06-01T13:59:17;9.65;;;6.07;;
78752;SDS011;68072;51.688;7.842;2023-06-01T14:01:43;9.13;;;6.22;;
78752;SDS011;68072;51.688;7.842;2023-06-01T14:04:08;12.38;;;6.15;;
78752;SDS011;68072;51.688;7.842;2023-06-01T14:06:34;10.15;;;6.13;;
78752;SDS011;68072;51.688;7.842;2023-06-01T14:08:59;9.25;;;6.13;;
78752;SDS011;68072;51.688;7.842;2023-06-01T14:11:25;9.63;;;5.70;;
78752;SDS011;68072;51.688;7.842;2023-06-01T14:13:52;8.98;;;5.82;;
78752;SDS011;68072;51.688;7.842;2023-06-01T14:16:17;11.30;;;6.03;;
78752;SDS011;68072;51.688;7.842;2023-06-01T14:18:43;7.78;;;5.80;;
78752;SDS011;68072;51.688;7.842;2023-06-01T14:21:08;12.55;;;5.85;;
78752;SDS011;68072;51.688;7.842;2023-06-01T14:23:34;10.82;;;6.10;;
78752;SDS011;68072;51.688;7.842;2023-06-01T14:26:00;9.38;;;6.05;;
78752;SDS011;68072;51.688;7.842;2023-06-01T14:28:25;13.27;;;5.90;;
78752;SDS011;68072;51.688;7.842;2023-06-01T14:30:51;12.70;;;6.30;;
78752;SDS011;68072;51.688;7.842;2023-06-01T14:33:16;11.63;;;6.57;;
78752;SDS011;68072;51.688;7.842;2023-06-01T14:35:42;9.25;;;5.80;;
78752;SDS011;68072;51.688;7.842;2023-06-01T14:38:07;11.10;;;6.15;;
78752;SDS011;68072;51.688;7.842;2023-06-01T14:40:32;8.73;;;5.25;;
78752;SDS011;68072;51.688;7.842;2023-06-01T14:42:58;8.98;;;5.95;;
78752;SDS011;68072;51.688;7.842;2023-06-01T14:45:23;9.10;;;4.90;;
78752;SDS011;68072;51.688;7.842;2023-06-01T14:47:49;8.98;;;4.93;;
78752;SDS011;68072;51.688;7.842;2023-06-01T14:52:39;7.80;;;5.57;;
78752;SDS011;68072;51.688;7.842;2023-06-01T14:57:31;11.40;;;5.13;;
78752;SDS011;68072;51.688;7.842;2023-06-01T15:02:22;7.70;;;5.03;;
78752;SDS011;68072;51.688;7.842;2023-06-01T15:04:47;6.25;;;4.80;;
78752;SDS011;68072;51.688;7.842;2023-06-01T15:07:12;8.13;;;5.28;;
78752;SDS011;68072;51.688;7.842;2023-06-01T15:09:38;6.20;;;4.90;;
78752;SDS011;68072;51.688;7.842;2023-06-01T15:14:29;6.13;;;4.22;;
78752;SDS011;68072;51.688;7.842;2023-06-01T15:16:54;5.63;;;4.45;;
78752;SDS011;68072;51.688;7.842;2023-06-01T15:19:19;5.85;;;4.55;;
78752;SDS011;68072;51.688;7.842;2023-06-01T15:21:45;5.18;;;4.15;;
78752;SDS011;68072;51.688;7.842;2023-06-01T15:24:10;5.20;;;4.18;;
78752;SDS011;68072;51.688;7.842;2023-06-01T15:26:36;4.68;;;3.88;;
78752;SDS011;68072;51.688;7.842;2023-06-01T15:31:27;4.80;;;3.30;;
78752;SDS011;68072;51.688;7.842;2023-06-01T15:36:18;3.50;;;3.20;;
78752;SDS011;68072;51.688;7.842;2023-06-01T15:41:08;4.57;;;3.33;;
78752;SDS011;68072;51.688;7.842;2023-06-01T15:46:00;5.80;;;3.05;;
78752;SDS011;68072;51.688;7.842;2023-06-01T15:50:51;4.60;;;2.67;;
78752;SDS011;68072;51.688;7.842;2023-06-01T15:55:43;3.95;;;3.10;;
78752;SDS011;68072;51.688;7.842;2023-06-01T15:58:09;3.97;;;3.00;;
78752;SDS011;68072;51.688;7.842;2023-06-01T16:03:00;2.87;;;2.57;;
78752;SDS011;68072;51.688;7.842;2023-06-01T16:07:51;3.53;;;3.00;;
78752;SDS011;68072;51.688;7.842;2023-06-01T16:10:17;3.25;;;2.95;;
78752;SDS011;68072;51.688;7.842;2023-06-01T16:12:42;4.35;;;2.70;;
78752;SDS011;68072;51.688;7.842;2023-06-01T16:17:33;5.30;;;3.10;;
78752;SDS011;68072;51.688;7.842;2023-06-01T16:19:59;4.63;;;3.00;;